sensor_id;sensor_type;location;lat;lon;timestamp;pressure;altitude;pressure_sealevel;temperature;humidity
39487;BME280;25173;50.430;18.926;2022-12-18T00:00:00;99661.09;;;0.30;64.36
39487;BME280;25173;50.430;18.926;2022-12-18T00:03:00;99660.13;;;0.23;63.85
39487;BME280;25173;50.430;18.926;2022-12-18T00:06:02;99663.47;;;0.25;64.37
39487;BME280;25173;50.430;18.926;2022-12-18T00:09:03;99661.09;;;0.30;64.53
39487;BME280;25173;50.430;18.926;2022-12-18T00:12:04;99674.63;;;0.45;64.52
39487;BME280;25173;50.430;18.926;2022-12-18T00:15:05;99682.16;;;0.50;64.63
39487;BME280;25173;50.430;18.926;2022-12-18T00:18:06;99679.47;;;0.58;64.62
39487;BME280;25173;50.430;18.926;2022-12-18T00:21:09;99687.50;;;0.66;64.54
39487;BME280;25173;50.430;18.926;2022-12-18T00:24:11;99691.16;;;0.73;64.29
39487;BME280;25173;50.430;18.926;2022-12-18T00:27:11;99693.13;;;0.79;64.25
39487;BME280;25173;50.430;18.926;2022-12-18T00:30:12;99688.94;;;0.76;63.81
39487;BME280;25173;50.430;18.926;2022-12-18T00:33:13;99692.44;;;0.77;64.13
39487;BME280;25173;50.430;18.926;2022-12-18T00:36:20;99694.50;;;0.67;63.62
39487;BME280;25173;50.430;18.926;2022-12-18T00:39:20;99703.91;;;0.63;63.74
39487;BME280;25173;50.430;18.926;2022-12-18T00:42:21;99702.22;;;0.62;63.86
39487;BME280;25173;50.430;18.926;2022-12-18T00:45:40;99708.97;;;0.58;63.58
39487;BME280;25173;50.430;18.926;2022-12-18T00:48:41;99706.59;;;0.63;64.06
39487;BME280;25173;50.430;18.926;2022-12-18T00:51:42;99714.63;;;0.63;64.10
39487;BME280;25173;50.430;18.926;2022-12-18T00:54:43;99721.66;;;0.64;63.73
39487;BME280;25173;50.430;18.926;2022-12-18T00:57:44;99726.53;;;0.60;63.56
39487;BME280;25173;50.430;18.926;2022-12-18T01:00:46;99723.53;;;0.47;63.10
39487;BME280;25173;50.430;18.926;2022-12-18T01:03:46;99739.16;;;0.27;63.49
39487;BME280;25173;50.430;18.926;2022-12-18T01:06:48;99738.50;;;0.25;64.25
39487;BME280;25173;50.430;18.926;2022-12-18T01:09:48;99754.25;;;0.28;64.02
39487;BME280;25173;50.430;18.926;2022-12-18T01:12:49;99754.56;;;0.33;63.97
39487;BME280;25173;50.430;18.926;2022-12-18T01:15:51;99736.81;;;0.24;64.07
39487;BME280;25173;50.430;18.926;2022-12-18T01:18:53;99741.50;;;0.30;63.78
39487;BME280;25173;50.430;18.926;2022-12-18T01:21:54;99744.16;;;0.22;63.98
39487;BME280;25173;50.430;18.926;2022-12-18T01:24:56;99738.50;;;0.17;63.84
39487;BME280;25173;50.430;18.926;2022-12-18T01:27:57;99746.84;;;0.22;63.89
39487;BME280;25173;50.430;18.926;2022-12-18T01:31:16;99753.88;;;0.23;64.05
39487;BME280;25173;50.430;18.926;2022-12-18T01:34:17;99746.38;;;0.27;64.14
39487;BME280;25173;50.430;18.926;2022-12-18T01:37:18;99747.53;;;0.24;64.15
39487;BME280;25173;50.430;18.926;2022-12-18T01:40:18;99758.41;;;0.23;64.08
39487;BME280;25173;50.430;18.926;2022-12-18T01:43:19;99756.25;;;0.26;64.04
39487;BME280;25173;50.430;18.926;2022-12-18T01:46:22;99761.94;;;0.31;64.17
39487;BME280;25173;50.430;18.926;2022-12-18T01:49:26;99764.13;;;0.36;63.95
39487;BME280;25173;50.430;18.926;2022-12-18T01:52:29;99761.94;;;0.23;63.78
39487;BME280;25173;50.430;18.926;2022-12-18T01:55:38;99767.47;;;0.22;63.81
39487;BME280;25173;50.430;18.926;2022-12-18T02:01:47;99781.72;;;0.14;63.83
39487;BME280;25173;50.430;18.926;2022-12-18T02:04:48;99792.06;;;0.01;63.94
39487;BME280;25173;50.430;18.926;2022-12-18T02:17:22;99804.28;;;0.04;64.10
39487;BME280;25173;50.430;18.926;2022-12-18T02:20:36;99807.31;;;-0.08;63.96
39487;BME280;25173;50.430;18.926;2022-12-18T02:27:09;99819.88;;;-0.08;64.47
39487;BME280;25173;50.430;18.926;2022-12-18T02:30:10;99821.88;;;-0.02;64.44
39487;BME280;25173;50.430;18.926;2022-12-18T02:33:13;99821.03;;;-0.03;64.36
39487;BME280;25173;50.430;18.926;2022-12-18T02:36:18;99815.50;;;-0.09;64.07
39487;BME280;25173;50.430;18.926;2022-12-18T02:39:23;99824.69;;;-0.12;64.08
39487;BME280;25173;50.430;18.926;2022-12-18T02:42:33;99825.38;;;-0.10;64.34
39487;BME280;25173;50.430;18.926;2022-12-18T02:45:35;99833.59;;;-0.03;64.35
39487;BME280;25173;50.430;18.926;2022-12-18T02:48:37;99839.28;;;0.02;64.38
39487;BME280;25173;50.430;18.926;2022-12-18T02:52:05;99843.63;;;0.03;64.25
39487;BME280;25173;50.430;18.926;2022-12-18T02:55:34;99842.78;;;0.03;63.87
39487;BME280;25173;50.430;18.926;2022-12-18T02:59:02;99844.63;;;0.02;64.09
39487;BME280;25173;50.430;18.926;2022-12-18T03:02:25;99855.50;;;0.00;64.04
39487;BME280;25173;50.430;18.926;2022-12-18T03:05:36;99858.69;;;0.04;64.07
39487;BME280;25173;50.430;18.926;2022-12-18T03:08:42;99857.84;;;0.04;64.17
39487;BME280;25173;50.430;18.926;2022-12-18T03:11:44;99870.41;;;-0.05;63.59
39487;BME280;25173;50.430;18.926;2022-12-18T03:18:17;99879.78;;;-0.09;64.45
39487;BME280;25173;50.430;18.926;2022-12-18T03:21:22;99873.06;;;-0.13;64.21
39487;BME280;25173;50.430;18.926;2022-12-18T03:24:27;99877.94;;;-0.09;64.39
39487;BME280;25173;50.430;18.926;2022-12-18T03:27:32;99873.41;;;-0.08;64.20
39487;BME280;25173;50.430;18.926;2022-12-18T03:30:37;99869.06;;;-0.09;64.26
39487;BME280;25173;50.430;18.926;2022-12-18T03:33:46;99877.09;;;-0.09;63.88
39487;BME280;25173;50.430;18.926;2022-12-18T03:36:49;99882.91;;;-0.14;63.92
39487;BME280;25173;50.430;18.926;2022-12-18T03:39:50;99891.44;;;-0.18;64.01
39487;BME280;25173;50.430;18.926;2022-12-18T03:42:54;99891.78;;;-0.21;64.11
39487;BME280;25173;50.430;18.926;2022-12-18T03:46:09;99890.13;;;-0.22;64.10
39487;BME280;25173;50.430;18.926;2022-12-18T03:49:34;99901.31;;;-0.19;63.87
39487;BME280;25173;50.430;18.926;2022-12-18T03:52:49;99893.94;;;-0.25;64.22
39487;BME280;25173;50.430;18.926;2022-12-18T03:55:53;99891.78;;;-0.21;64.22
39487;BME280;25173;50.430;18.926;2022-12-18T03:58:57;99912.34;;;-0.22;64.06
39487;BME280;25173;50.430;18.926;2022-12-18T04:02:03;99914.53;;;-0.25;64.13
39487;BME280;25173;50.430;18.926;2022-12-18T04:05:06;99910.88;;;-0.16;64.37
39487;BME280;25173;50.430;18.926;2022-12-18T04:08:14;99908.34;;;-0.18;64.12
39487;BME280;25173;50.430;18.926;2022-12-18T04:11:18;99919.25;;;-0.11;64.46
39487;BME280;25173;50.430;18.926;2022-12-18T04:14:21;99921.94;;;-0.11;63.80
39487;BME280;25173;50.430;18.926;2022-12-18T04:17:27;99917.91;;;-0.15;64.34
39487;BME280;25173;50.430;18.926;2022-12-18T04:20:28;99912.06;;;-0.11;64.30
39487;BME280;25173;50.430;18.926;2022-12-18T04:23:28;99927.16;;;-0.02;64.38
39487;BME280;25173;50.430;18.926;2022-12-18T04:26:32;99929.00;;;-0.02;63.80
39487;BME280;25173;50.430;18.926;2022-12-18T04:29:44;99932.00;;;-0.05;63.51
39487;BME280;25173;50.430;18.926;2022-12-18T04:32:44;99931.31;;;-0.15;63.70
39487;BME280;25173;50.430;18.926;2022-12-18T04:35:45;99939.84;;;-0.12;64.13
39487;BME280;25173;50.430;18.926;2022-12-18T04:38:47;99939.69;;;-0.10;64.09
39487;BME280;25173;50.430;18.926;2022-12-18T04:41:50;99943.22;;;-0.02;63.85
39487;BME280;25173;50.430;18.926;2022-12-18T04:44:51;99946.78;;;0.07;63.75
39487;BME280;25173;50.430;18.926;2022-12-18T04:47:52;99954.16;;;0.13;63.49
39487;BME280;25173;50.430;18.926;2022-12-18T04:50:53;99951.31;;;0.15;63.68
39487;BME280;25173;50.430;18.926;2022-12-18T04:53:53;99954.00;;;0.23;63.67
39487;BME280;25173;50.430;18.926;2022-12-18T04:56:54;99954.34;;;0.28;63.60
39487;BME280;25173;50.430;18.926;2022-12-18T04:59:55;99960.38;;;0.22;63.09
39487;BME280;25173;50.430;18.926;2022-12-18T05:02:55;99962.72;;;0.25;63.60
39487;BME280;25173;50.430;18.926;2022-12-18T05:05:56;99963.06;;;0.38;63.68
39487;BME280;25173;50.430;18.926;2022-12-18T05:08:56;99971.13;;;0.46;63.06
39487;BME280;25173;50.430;18.926;2022-12-18T05:11:57;99973.66;;;0.48;62.89
39487;BME280;25173;50.430;18.926;2022-12-18T05:14:58;99971.63;;;0.33;62.76
39487;BME280;25173;50.430;18.926;2022-12-18T05:17:59;99982.66;;;0.30;63.14
39487;BME280;25173;50.430;18.926;2022-12-18T05:21:00;99988.00;;;0.30;63.23
39487;BME280;25173;50.430;18.926;2022-12-18T05:24:01;100000.94;;;0.35;63.27
39487;BME280;25173;50.430;18.926;2022-12-18T05:27:01;99993.38;;;0.38;63.06
39487;BME280;25173;50.430;18.926;2022-12-18T05:30:02;100003.78;;;0.42;62.95
39487;BME280;25173;50.430;18.926;2022-12-18T05:33:03;99996.25;;;0.45;63.16
39487;BME280;25173;50.430;18.926;2022-12-18T05:36:06;100000.13;;;0.51;63.22
39487;BME280;25173;50.430;18.926;2022-12-18T05:39:07;100001.81;;;0.52;63.03
39487;BME280;25173;50.430;18.926;2022-12-18T05:42:08;100014.41;;;0.59;63.15
39487;BME280;25173;50.430;18.926;2022-12-18T05:45:09;100012.38;;;0.69;63.08
39487;BME280;25173;50.430;18.926;2022-12-18T05:48:09;100014.38;;;0.67;62.72
39487;BME280;25173;50.430;18.926;2022-12-18T05:51:15;100016.22;;;0.67;62.35
39487;BME280;25173;50.430;18.926;2022-12-18T05:54:16;100014.19;;;0.53;61.05
39487;BME280;25173;50.430;18.926;2022-12-18T05:57:17;100015.50;;;0.41;62.34
39487;BME280;25173;50.430;18.926;2022-12-18T06:00:18;100020.84;;;0.32;62.59
39487;BME280;25173;50.430;18.926;2022-12-18T06:03:18;100020.00;;;0.32;62.79
39487;BME280;25173;50.430;18.926;2022-12-18T06:06:22;100022.69;;;0.32;62.54
39487;BME280;25173;50.430;18.926;2022-12-18T06:09:23;100022.38;;;0.35;62.73
39487;BME280;25173;50.430;18.926;2022-12-18T06:12:24;100026.56;;;0.29;62.67
39487;BME280;25173;50.430;18.926;2022-12-18T06:15:24;100028.19;;;0.30;62.42
39487;BME280;25173;50.430;18.926;2022-12-18T06:18:25;100032.06;;;0.28;62.46
39487;BME280;25173;50.430;18.926;2022-12-18T06:21:27;100038.44;;;0.35;62.58
39487;BME280;25173;50.430;18.926;2022-12-18T06:24:28;100037.25;;;0.37;62.43
39487;BME280;25173;50.430;18.926;2022-12-18T06:27:28;100038.25;;;0.28;62.11
39487;BME280;25173;50.430;18.926;2022-12-18T06:30:29;100044.78;;;0.26;62.62
39487;BME280;25173;50.430;18.926;2022-12-18T06:33:30;100047.78;;;0.31;62.39
39487;BME280;25173;50.430;18.926;2022-12-18T06:36:31;100054.84;;;0.32;62.47
39487;BME280;25173;50.430;18.926;2022-12-18T06:39:32;100049.13;;;0.27;62.45
39487;BME280;25173;50.430;18.926;2022-12-18T06:42:33;100057.19;;;0.27;62.44
39487;BME280;25173;50.430;18.926;2022-12-18T06:45:33;100062.00;;;0.23;62.19
39487;BME280;25173;50.430;18.926;2022-12-18T06:48:34;100070.53;;;0.19;62.29
39487;BME280;25173;50.430;18.926;2022-12-18T06:51:35;100074.84;;;0.12;62.33
39487;BME280;25173;50.430;18.926;2022-12-18T06:54:36;100075.50;;;0.06;62.09
39487;BME280;25173;50.430;18.926;2022-12-18T06:57:37;100077.28;;;-0.03;62.04
39487;BME280;25173;50.430;18.926;2022-12-18T07:00:38;100082.97;;;-0.06;62.27
39487;BME280;25173;50.430;18.926;2022-12-18T07:03:40;100087.25;;;-0.13;62.13
39487;BME280;25173;50.430;18.926;2022-12-18T07:06:41;100089.44;;;-0.17;62.26
39487;BME280;25173;50.430;18.926;2022-12-18T07:09:41;100097.78;;;-0.20;62.27
39487;BME280;25173;50.430;18.926;2022-12-18T07:12:42;100105.66;;;-0.18;62.34
39487;BME280;25173;50.430;18.926;2022-12-18T07:15:43;100110.38;;;-0.12;62.40
39487;BME280;25173;50.430;18.926;2022-12-18T07:18:44;100117.78;;;-0.06;62.35
39487;BME280;25173;50.430;18.926;2022-12-18T07:21:45;100113.41;;;-0.07;62.12
39487;BME280;25173;50.430;18.926;2022-12-18T07:24:46;100118.09;;;-0.09;61.93
39487;BME280;25173;50.430;18.926;2022-12-18T07:27:49;100117.34;;;-0.19;62.14
39487;BME280;25173;50.430;18.926;2022-12-18T07:30:50;100122.41;;;-0.16;62.45
39487;BME280;25173;50.430;18.926;2022-12-18T07:33:51;100128.66;;;-0.08;62.21
39487;BME280;25173;50.430;18.926;2022-12-18T07:36:52;100132.84;;;-0.05;62.33
39487;BME280;25173;50.430;18.926;2022-12-18T07:39:52;100145.66;;;0.09;62.31
39487;BME280;25173;50.430;18.926;2022-12-18T07:42:53;100138.00;;;0.14;62.00
39487;BME280;25173;50.430;18.926;2022-12-18T07:45:54;100137.88;;;0.24;61.78
39487;BME280;25173;50.430;18.926;2022-12-18T07:48:54;100133.94;;;0.36;61.97
39487;BME280;25173;50.430;18.926;2022-12-18T07:51:56;100139.34;;;0.52;61.48
39487;BME280;25173;50.430;18.926;2022-12-18T07:54:57;100135.38;;;0.64;61.26
39487;BME280;25173;50.430;18.926;2022-12-18T07:58:00;100139.97;;;0.80;61.19
39487;BME280;25173;50.430;18.926;2022-12-18T08:01:07;100132.44;;;0.92;61.08
39487;BME280;25173;50.430;18.926;2022-12-18T08:04:08;100126.78;;;1.03;60.83
39487;BME280;25173;50.430;18.926;2022-12-18T08:07:08;100125.44;;;1.07;60.40
39487;BME280;25173;50.430;18.926;2022-12-18T08:10:09;100133.81;;;1.12;60.67
39487;BME280;25173;50.430;18.926;2022-12-18T08:13:10;100140.53;;;1.08;60.44
39487;BME280;25173;50.430;18.926;2022-12-18T08:16:11;100132.66;;;1.14;60.53
39487;BME280;25173;50.430;18.926;2022-12-18T08:19:12;100137.72;;;1.26;60.11
39487;BME280;25173;50.430;18.926;2022-12-18T08:22:12;100133.69;;;1.30;59.57
39487;BME280;25173;50.430;18.926;2022-12-18T08:25:13;100148.47;;;1.26;59.29
39487;BME280;25173;50.430;18.926;2022-12-18T08:28:14;100147.44;;;1.27;59.47
39487;BME280;25173;50.430;18.926;2022-12-18T08:31:16;100148.28;;;1.27;59.18
39487;BME280;25173;50.430;18.926;2022-12-18T08:34:17;100154.00;;;1.32;59.10
39487;BME280;25173;50.430;18.926;2022-12-18T08:37:18;100161.72;;;1.35;59.21
39487;BME280;25173;50.430;18.926;2022-12-18T08:40:18;100168.25;;;1.41;59.32
39487;BME280;25173;50.430;18.926;2022-12-18T08:43:19;100181.69;;;1.49;59.32
39487;BME280;25173;50.430;18.926;2022-12-18T08:46:41;100180.69;;;1.58;59.20
39487;BME280;25173;50.430;18.926;2022-12-18T08:49:42;100182.03;;;1.46;59.15
39487;BME280;25173;50.430;18.926;2022-12-18T08:52:43;100182.88;;;1.38;59.32
39487;BME280;25173;50.430;18.926;2022-12-18T08:55:43;100191.09;;;1.53;59.66
39487;BME280;25173;50.430;18.926;2022-12-18T08:58:44;100187.44;;;1.62;59.14
39487;BME280;25173;50.430;18.926;2022-12-18T09:01:46;100197.50;;;1.68;59.19
39487;BME280;25173;50.430;18.926;2022-12-18T09:04:47;100194.97;;;1.75;59.09
39487;BME280;25173;50.430;18.926;2022-12-18T09:07:48;100191.13;;;1.77;58.61
39487;BME280;25173;50.430;18.926;2022-12-18T09:10:49;100200.84;;;1.78;58.49
39487;BME280;25173;50.430;18.926;2022-12-18T09:13:51;100202.53;;;1.79;58.54
39487;BME280;25173;50.430;18.926;2022-12-18T09:16:52;100202.19;;;1.82;58.41
39487;BME280;25173;50.430;18.926;2022-12-18T09:19:53;100203.53;;;1.78;58.40
39487;BME280;25173;50.430;18.926;2022-12-18T09:22:53;100206.72;;;1.82;58.43
39487;BME280;25173;50.430;18.926;2022-12-18T09:25:59;100205.06;;;1.89;58.35
39487;BME280;25173;50.430;18.926;2022-12-18T09:29:00;100211.94;;;1.91;58.50
39487;BME280;25173;50.430;18.926;2022-12-18T09:32:00;100208.59;;;1.98;58.22
39487;BME280;25173;50.430;18.926;2022-12-18T09:35:01;100205.91;;;1.98;57.77
39487;BME280;25173;50.430;18.926;2022-12-18T09:38:02;100209.41;;;1.98;57.95
39487;BME280;25173;50.430;18.926;2022-12-18T09:44:39;100215.63;;;1.99;58.27
39487;BME280;25173;50.430;18.926;2022-12-18T09:47:43;100216.81;;;2.04;58.17
39487;BME280;25173;50.430;18.926;2022-12-18T09:50:46;100218.66;;;2.12;58.10
39487;BME280;25173;50.430;18.926;2022-12-18T09:53:52;100215.59;;;2.23;58.13
39487;BME280;25173;50.430;18.926;2022-12-18T09:56:54;100208.91;;;2.19;58.04
39487;BME280;25173;50.430;18.926;2022-12-18T10:00:03;100214.44;;;2.09;58.02
39487;BME280;25173;50.430;18.926;2022-12-18T10:03:14;100217.28;;;2.08;58.38
39487;BME280;25173;50.430;18.926;2022-12-18T10:06:20;100212.09;;;2.14;58.70
39487;BME280;25173;50.430;18.926;2022-12-18T10:09:55;100205.22;;;2.20;58.26
39487;BME280;25173;50.430;18.926;2022-12-18T10:13:40;100209.72;;;2.27;57.92
39487;BME280;25173;50.430;18.926;2022-12-18T10:16:57;100215.59;;;2.23;57.84
39487;BME280;25173;50.430;18.926;2022-12-18T10:23:54;100200.81;;;2.27;57.85
39487;BME280;25173;50.430;18.926;2022-12-18T10:27:12;100187.69;;;2.32;58.19
39487;BME280;25173;50.430;18.926;2022-12-18T10:30:20;100189.88;;;2.37;57.96
39487;BME280;25173;50.430;18.926;2022-12-18T10:33:23;100189.88;;;2.37;58.12
39487;BME280;25173;50.430;18.926;2022-12-18T10:36:24;100185.34;;;2.37;58.26
39487;BME280;25173;50.430;18.926;2022-12-18T10:39:25;100183.97;;;2.49;57.88
39487;BME280;25173;50.430;18.926;2022-12-18T10:42:26;100187.81;;;2.55;57.80
39487;BME280;25173;50.430;18.926;2022-12-18T10:45:27;100182.53;;;2.78;58.02
39487;BME280;25173;50.430;18.926;2022-12-18T10:48:29;100174.00;;;2.97;57.65
39487;BME280;25173;50.430;18.926;2022-12-18T10:51:33;100178.25;;;3.22;57.35
39487;BME280;25173;50.430;18.926;2022-12-18T10:54:35;100176.44;;;3.45;57.24
39487;BME280;25173;50.430;18.926;2022-12-18T10:57:40;100163.50;;;3.64;56.73
39487;BME280;25173;50.430;18.926;2022-12-18T11:00:41;100160.31;;;3.83;56.28
39487;BME280;25173;50.430;18.926;2022-12-18T11:04:08;100150.41;;;3.98;56.23
39487;BME280;25173;50.430;18.926;2022-12-18T11:07:07;100154.06;;;4.20;56.07
39487;BME280;25173;50.430;18.926;2022-12-18T11:10:16;100156.59;;;4.36;55.61
39487;BME280;25173;50.430;18.926;2022-12-18T11:13:23;100149.91;;;4.47;55.25
39487;BME280;25173;50.430;18.926;2022-12-18T11:16:24;100144.69;;;4.45;54.84
39487;BME280;25173;50.430;18.926;2022-12-18T11:19:39;100157.31;;;4.45;54.04
39487;BME280;25173;50.430;18.926;2022-12-18T11:22:41;100148.88;;;4.33;54.20
39487;BME280;25173;50.430;18.926;2022-12-18T11:25:51;100157.59;;;4.20;53.89
39487;BME280;25173;50.430;18.926;2022-12-18T11:29:08;100162.41;;;4.10;53.88
39487;BME280;25173;50.430;18.926;2022-12-18T11:32:33;100169.84;;;4.08;54.02
39487;BME280;25173;50.430;18.926;2022-12-18T11:35:53;100168.09;;;4.15;54.28
39487;BME280;25173;50.430;18.926;2022-12-18T11:38:58;100163.84;;;4.21;54.50
39487;BME280;25173;50.430;18.926;2022-12-18T11:45:34;100176.88;;;4.47;53.96
39487;BME280;25173;50.430;18.926;2022-12-18T11:48:52;100176.50;;;4.50;53.97
39487;BME280;25173;50.430;18.926;2022-12-18T11:52:03;100175.09;;;4.54;54.24
39487;BME280;25173;50.430;18.926;2022-12-18T11:55:31;100181.44;;;4.61;53.51
39487;BME280;25173;50.430;18.926;2022-12-18T11:58:50;100180.69;;;4.67;54.17
39487;BME280;25173;50.430;18.926;2022-12-18T12:02:03;100180.59;;;4.75;53.93
39487;BME280;25173;50.430;18.926;2022-12-18T12:12:17;100187.50;;;4.63;51.02
39487;BME280;25173;50.430;18.926;2022-12-18T12:19:15;100185.97;;;4.46;52.80
39487;BME280;25173;50.430;18.926;2022-12-18T12:22:27;100185.44;;;4.50;53.46
39487;BME280;25173;50.430;18.926;2022-12-18T12:29:57;100203.09;;;4.53;53.30
39487;BME280;25173;50.430;18.926;2022-12-18T12:39:20;100212.81;;;4.62;53.03
39487;BME280;25173;50.430;18.926;2022-12-18T12:42:35;100213.47;;;4.64;52.39
39487;BME280;25173;50.430;18.926;2022-12-18T12:46:04;100208.59;;;4.59;52.71
39487;BME280;25173;50.430;18.926;2022-12-18T12:49:15;100212.03;;;4.53;52.46
39487;BME280;25173;50.430;18.926;2022-12-18T12:52:42;100208.31;;;4.40;51.81
39487;BME280;25173;50.430;18.926;2022-12-18T12:55:44;100212.31;;;4.29;52.89
39487;BME280;25173;50.430;18.926;2022-12-18T13:02:06;100206.78;;;4.22;52.96
39487;BME280;25173;50.430;18.926;2022-12-18T13:08:53;100200.69;;;4.28;52.87
39487;BME280;25173;50.430;18.926;2022-12-18T13:12:02;100221.81;;;4.40;53.02
39487;BME280;25173;50.430;18.926;2022-12-18T13:15:30;100218.44;;;4.38;52.65
39487;BME280;25173;50.430;18.926;2022-12-18T13:18:32;100212.88;;;4.39;52.63
39487;BME280;25173;50.430;18.926;2022-12-18T13:21:34;100217.91;;;4.42;52.69
39487;BME280;25173;50.430;18.926;2022-12-18T13:24:35;100220.78;;;4.41;52.42
39487;BME280;25173;50.430;18.926;2022-12-18T13:33:48;100226.72;;;4.21;51.94
39487;BME280;25173;50.430;18.926;2022-12-18T13:36:49;100224.81;;;4.07;52.22
39487;BME280;25173;50.430;18.926;2022-12-18T13:39:50;100229.22;;;4.00;52.28
39487;BME280;25173;50.430;18.926;2022-12-18T13:42:52;100235.91;;;3.89;52.21
39487;BME280;25173;50.430;18.926;2022-12-18T13:46:21;100236.84;;;3.74;52.16
39487;BME280;25173;50.430;18.926;2022-12-18T13:49:26;100235.22;;;3.65;52.70
39487;BME280;25173;50.430;18.926;2022-12-18T13:52:37;100233.13;;;3.52;51.96
39487;BME280;25173;50.430;18.926;2022-12-18T13:55:44;100222.59;;;3.34;52.10
39487;BME280;25173;50.430;18.926;2022-12-18T13:58:45;100223.59;;;3.10;50.59
39487;BME280;25173;50.430;18.926;2022-12-18T14:01:49;100222.50;;;2.89;52.45
39487;BME280;25173;50.430;18.926;2022-12-18T14:04:51;100217.53;;;2.69;52.43
39487;BME280;25173;50.430;18.926;2022-12-18T14:07:53;100223.63;;;2.47;52.51
39487;BME280;25173;50.430;18.926;2022-12-18T14:10:55;100225.69;;;2.29;52.70
39487;BME280;25173;50.430;18.926;2022-12-18T14:13:56;100222.19;;;2.12;52.89
39487;BME280;25173;50.430;18.926;2022-12-18T14:16:57;100221.84;;;1.99;52.74
39487;BME280;25173;50.430;18.926;2022-12-18T14:19:57;100223.84;;;1.89;52.86
39487;BME280;25173;50.430;18.926;2022-12-18T14:22:58;100223.38;;;1.77;52.87
39487;BME280;25173;50.430;18.926;2022-12-18T14:26:02;100216.44;;;1.59;52.71
39487;BME280;25173;50.430;18.926;2022-12-18T14:32:23;100227.94;;;1.27;53.34
39487;BME280;25173;50.430;18.926;2022-12-18T14:35:24;100225.59;;;1.15;53.04
39487;BME280;25173;50.430;18.926;2022-12-18T14:38:37;100234.75;;;1.05;53.29
39487;BME280;25173;50.430;18.926;2022-12-18T14:41:38;100239.75;;;0.92;53.00
39487;BME280;25173;50.430;18.926;2022-12-18T14:44:39;100248.41;;;0.77;52.74
39487;BME280;25173;50.430;18.926;2022-12-18T14:47:43;100242.78;;;0.63;52.94
39487;BME280;25173;50.430;18.926;2022-12-18T14:50:44;100248.25;;;0.53;53.09
39487;BME280;25173;50.430;18.926;2022-12-18T14:53:54;100253.34;;;0.38;52.80
39487;BME280;25173;50.430;18.926;2022-12-18T14:57:06;100261.91;;;0.16;52.54
39487;BME280;25173;50.430;18.926;2022-12-18T15:00:18;100260.19;;;0.07;53.23
39487;BME280;25173;50.430;18.926;2022-12-18T15:03:21;100263.47;;;0.01;53.13
39487;BME280;25173;50.430;18.926;2022-12-18T15:06:36;100273.09;;;-0.06;52.91
39487;BME280;25173;50.430;18.926;2022-12-18T15:09:40;100265.75;;;-0.22;53.06
39487;BME280;25173;50.430;18.926;2022-12-18T15:13:07;100275.94;;;-0.25;52.44
39487;BME280;25173;50.430;18.926;2022-12-18T15:16:11;100273.19;;;-0.33;52.55
39487;BME280;25173;50.430;18.926;2022-12-18T15:19:15;100273.44;;;-0.45;52.50
39487;BME280;25173;50.430;18.926;2022-12-18T15:22:26;100279.00;;;-0.56;52.08
39487;BME280;25173;50.430;18.926;2022-12-18T15:25:32;100281.06;;;-0.67;51.89
39487;BME280;25173;50.430;18.926;2022-12-18T15:31:37;100282.03;;;-0.96;51.77
39487;BME280;25173;50.430;18.926;2022-12-18T15:34:38;100288.84;;;-1.11;51.53
39487;BME280;25173;50.430;18.926;2022-12-18T15:37:38;100294.13;;;-1.19;51.52
39487;BME280;25173;50.430;18.926;2022-12-18T15:40:39;100289.63;;;-1.28;51.43
39487;BME280;25173;50.430;18.926;2022-12-18T15:43:40;100286.06;;;-1.56;51.12
39487;BME280;25173;50.430;18.926;2022-12-18T15:46:41;100291.47;;;-1.94;51.13
39487;BME280;25173;50.430;18.926;2022-12-18T15:49:43;100300.31;;;-2.13;51.89
39487;BME280;25173;50.430;18.926;2022-12-18T15:52:45;100295.97;;;-2.33;51.89
39487;BME280;25173;50.430;18.926;2022-12-18T15:55:47;100302.50;;;-2.66;51.46
39487;BME280;25173;50.430;18.926;2022-12-18T15:59:19;100306.66;;;-2.93;51.85
39487;BME280;25173;50.430;18.926;2022-12-18T16:02:21;100311.53;;;-2.98;52.23
39487;BME280;25173;50.430;18.926;2022-12-18T16:05:23;100310.22;;;-3.13;51.52
39487;BME280;25173;50.430;18.926;2022-12-18T16:08:24;100316.38;;;-3.43;51.48
39487;BME280;25173;50.430;18.926;2022-12-18T16:11:30;100315.09;;;-3.69;51.81
39487;BME280;25173;50.430;18.926;2022-12-18T16:14:41;100312.22;;;-3.77;51.70
39487;BME280;25173;50.430;18.926;2022-12-18T16:17:46;100308.59;;;-3.97;51.81
39487;BME280;25173;50.430;18.926;2022-12-18T16:20:47;100312.94;;;-4.17;51.72
39487;BME280;25173;50.430;18.926;2022-12-18T16:23:48;100320.03;;;-4.38;51.64
39487;BME280;25173;50.430;18.926;2022-12-18T16:26:49;100319.13;;;-4.59;52.08
39487;BME280;25173;50.430;18.926;2022-12-18T16:29:52;100312.97;;;-4.71;52.38
39487;BME280;25173;50.430;18.926;2022-12-18T16:32:54;100309.38;;;-4.81;52.29
39487;BME280;25173;50.430;18.926;2022-12-18T16:35:55;100310.81;;;-4.88;52.21
39487;BME280;25173;50.430;18.926;2022-12-18T16:38:57;100313.75;;;-5.02;52.19
39487;BME280;25173;50.430;18.926;2022-12-18T16:41:57;100316.78;;;-5.07;52.45
39487;BME280;25173;50.430;18.926;2022-12-18T16:44:58;100312.31;;;-5.06;52.69
39487;BME280;25173;50.430;18.926;2022-12-18T16:47:59;100311.69;;;-4.99;52.98
39487;BME280;25173;50.430;18.926;2022-12-18T16:51:04;100313.13;;;-4.84;52.45
39487;BME280;25173;50.430;18.926;2022-12-18T16:54:05;100308.28;;;-4.79;51.94
39487;BME280;25173;50.430;18.926;2022-12-18T16:57:05;100305.75;;;-4.80;51.80
39487;BME280;25173;50.430;18.926;2022-12-18T17:00:07;100291.75;;;-4.93;51.78
39487;BME280;25173;50.430;18.926;2022-12-18T17:03:07;100286.09;;;-5.00;51.84
39487;BME280;25173;50.430;18.926;2022-12-18T17:06:08;100280.78;;;-5.00;51.97
39487;BME280;25173;50.430;18.926;2022-12-18T17:09:13;100275.59;;;-5.01;52.05
39487;BME280;25173;50.430;18.926;2022-12-18T17:12:15;100269.66;;;-4.94;51.82
39487;BME280;25173;50.430;18.926;2022-12-18T17:15:16;100268.56;;;-4.91;51.66